Time;durP1;ratioP1;P1;durP2;ratioP2;P2;SDS_P1;SDS_P2;PMS_P1;PMS_P2;Temp;Humidity;BMP_temperature;BMP_pressure;BME280_temperature;BME280_humidity;BME280_pressure;Samples;Min_cycle;Max_cycle;Signal;HPM_P1;HPM_P2
2022/07/02 00:01:56;;;;;;;17.90;10.50;;;14.30;99.90;;;;;;4171039;28;20271;-80
2022/07/02 00:04:01;;;;;;;19.70;10.90;;;14.30;99.90;;;;;;4176865;28;20206;-79
2022/07/02 00:06:05;;;;;;;18.77;10.23;;;14.30;99.90;;;;;;4175263;28;20803;-78
2022/07/02 00:08:08;;;;;;;17.43;10.60;;;14.30;99.90;;;;;;4173100;28;20233;-80
2022/07/02 00:10:11;;;;;;;17.83;10.50;;;14.10;99.90;;;;;;4173826;28;20258;-79
2022/07/02 00:12:14;;;;;;;17.43;10.23;;;14.30;99.90;;;;;;4174226;28;20659;-81
2022/07/02 00:14:17;;;;;;;17.07;9.97;;;14.50;99.90;;;;;;4178511;28;20246;-78
2022/07/02 00:16:19;;;;;;;17.97;9.77;;;14.30;99.90;;;;;;4174274;28;20262;-81
2022/07/02 00:18:22;;;;;;;23.33;13.07;;;14.30;99.90;;;;;;4176912;28;20649;-79
2022/07/02 00:20:24;;;;;;;21.87;12.90;;;14.30;99.90;;;;;;4174301;28;20245;-80
2022/07/02 00:22:29;;;;;;;20.53;12.50;;;14.30;99.90;;;;;;4168432;28;20203;-79
2022/07/02 00:24:31;;;;;;;23.67;13.47;;;14.40;99.90;;;;;;4169804;28;20203;-79
2022/07/02 00:26:35;;;;;;;21.73;12.23;;;14.30;99.90;;;;;;4172131;28;20237;-79
2022/07/02 00:28:43;;;;;;;19.60;11.47;;;14.30;99.90;;;;;;4172280;28;20213;-79
2022/07/02 00:30:47;;;;;;;18.47;10.73;;;14.30;99.90;;;;;;4171479;28;20218;-79
2022/07/02 00:32:49;;;;;;;16.33;10.47;;;14.30;99.90;;;;;;4171519;28;20230;-79
2022/07/02 00:34:52;;;;;;;18.10;10.53;;;14.30;99.90;;;;;;4175749;28;20215;-80
2022/07/02 00:36:55;;;;;;;14.97;9.77;;;14.30;99.90;;;;;;4170157;28;20273;-81
2022/07/02 00:38:57;;;;;;;19.93;11.30;;;14.30;99.90;;;;;;4165851;28;20633;-79
2022/07/02 00:41:02;;;;;;;17.80;10.70;;;14.30;99.90;;;;;;4174741;28;20211;-79
2022/07/02 00:43:04;;;;;;;16.43;10.57;;;14.30;99.90;;;;;;4174693;28;20279;-79
2022/07/02 00:45:08;;;;;;;16.17;9.63;;;14.30;99.90;;;;;;4169134;28;20252;-79
2022/07/02 00:47:11;;;;;;;19.07;10.00;;;14.30;99.90;;;;;;4170808;28;20239;-79
2022/07/02 00:49:14;;;;;;;17.90;10.03;;;14.30;99.90;;;;;;4178160;28;20210;-79
2022/07/02 00:51:15;;;;;;;16.47;9.40;;;14.30;99.90;;;;;;4172884;28;20278;-79
2022/07/02 00:53:17;;;;;;;19.63;9.50;;;14.20;99.90;;;;;;4168653;28;20321;-79
2022/07/02 00:55:19;;;;;;;15.87;9.60;;;14.30;99.90;;;;;;4172838;28;20218;-79
2022/07/02 00:57:22;;;;;;;13.60;8.33;;;14.30;99.90;;;;;;4174149;28;20274;-79
2022/07/02 00:59:25;;;;;;;17.57;9.50;;;14.20;99.90;;;;;;4172505;28;20313;-79
2022/07/02 01:01:28;;;;;;;13.77;8.30;;;14.30;99.90;;;;;;4176053;28;20245;-80
2022/07/02 01:03:32;;;;;;;13.43;8.37;;;14.30;99.90;;;;;;4176999;28;20583;-80
2022/07/02 01:05:37;;;;;;;14.07;8.00;;;14.30;99.90;;;;;;4180343;28;20206;-79
2022/07/02 01:07:40;;;;;;;15.83;9.10;;;14.30;99.90;;;;;;4174287;28;20574;-80
2022/07/02 01:12:04;;;;;;;15.10;9.40;;;14.20;99.90;;;;;;4167829;28;20215;-79
2022/07/02 01:14:06;;;;;;;15.77;9.77;;;14.20;99.90;;;;;;4170786;28;20237;-79
2022/07/02 01:16:08;;;;;;;14.73;9.40;;;14.20;99.90;;;;;;4166843;28;20237;-79
2022/07/02 01:18:17;;;;;;;15.73;9.33;;;14.20;99.90;;;;;;4166999;28;20241;-79
2022/07/02 01:20:19;;;;;;;16.27;9.63;;;14.20;99.90;;;;;;4167551;28;20208;-80
2022/07/02 01:22:23;;;;;;;14.57;8.60;;;14.20;99.90;;;;;;4172076;28;20238;-82
2022/07/02 01:24:25;;;;;;;17.07;9.70;;;14.10;99.90;;;;;;4172495;28;20283;-80
2022/07/02 01:27:17;;;;;;;12.77;8.40;;;14.10;99.90;;;;;;4178325;28;20236;-80
2022/07/02 01:30:09;;;;;;;13.57;8.03;;;14.10;99.90;;;;;;4174697;28;20234;-79
2022/07/02 01:33:02;;;;;;;11.93;8.03;;;14.10;99.90;;;;;;4168800;28;20215;-79
2022/07/02 01:35:55;;;;;;;11.43;7.63;;;14.10;99.90;;;;;;4167490;28;20321;-79
2022/07/02 01:38:48;;;;;;;12.77;7.50;;;14.10;99.90;;;;;;4169402;28;20214;-79
2022/07/02 01:41:41;;;;;;;12.50;7.73;;;14.10;99.90;;;;;;4178346;28;20225;-79
2022/07/02 01:44:33;;;;;;;11.67;7.17;;;14.20;99.90;;;;;;4179169;28;20304;-79
2022/07/02 01:47:25;;;;;;;13.83;8.20;;;14.10;99.90;;;;;;4179515;28;20234;-81
2022/07/02 01:50:17;;;;;;;12.03;7.40;;;14.20;99.90;;;;;;4179842;28;20240;-80
2022/07/02 01:53:10;;;;;;;12.97;7.90;;;14.20;99.90;;;;;;4174396;28;20217;-81
2022/07/02 01:56:02;;;;;;;13.77;7.70;;;14.10;99.90;;;;;;4170683;28;20834;-79
2022/07/02 01:58:54;;;;;;;10.53;6.53;;;14.20;99.90;;;;;;4168434;28;20248;-80
2022/07/02 02:01:46;;;;;;;10.37;7.07;;;14.20;99.90;;;;;;4166985;28;20211;-80
2022/07/02 02:04:39;;;;;;;11.23;7.00;;;14.20;99.90;;;;;;4174066;28;20266;-82
2022/07/02 03:47:56;;;;;;;9.57;6.67;;;13.60;99.90;;;;;;4169857;28;20205;-79
2022/07/02 03:49:58;;;;;;;10.67;7.23;;;13.60;99.90;;;;;;4172241;28;20691;-80
2022/07/02 03:52:00;;;;;;;11.43;6.93;;;13.50;99.90;;;;;;4193601;28;20213;-79
2022/07/02 03:54:02;;;;;;;13.33;7.60;;;13.60;99.90;;;;;;4173848;28;20273;-80
2022/07/02 03:56:04;;;;;;;11.10;8.40;;;13.50;99.90;;;;;;4172487;28;20635;-81
2022/07/02 03:58:06;;;;;;;12.83;8.77;;;13.60;99.90;;;;;;4190014;28;20726;-79
2022/07/02 04:00:09;;;;;;;14.90;8.57;;;13.60;99.90;;;;;;4176105;28;20203;-79
2022/07/02 04:02:11;;;;;;;12.70;8.87;;;13.60;99.90;;;;;;4193504;28;20211;-82
2022/07/02 04:04:15;;;;;;;11.03;7.90;;;13.60;99.90;;;;;;4174786;28;20202;-79
2022/07/02 04:06:17;;;;;;;12.17;7.37;;;13.50;99.90;;;;;;4189336;28;20234;-80
2022/07/02 04:08:19;;;;;;;13.00;7.33;;;13.90;99.90;;;;;;4187931;28;20221;-80
2022/07/02 04:10:21;;;;;;;11.13;7.87;;;13.50;99.90;;;;;;4186969;28;20209;-80
2022/07/02 04:12:23;;;;;;;12.47;7.67;;;13.60;99.90;;;;;;4177042;28;20213;-80
2022/07/02 04:14:25;;;;;;;13.57;7.53;;;13.60;99.90;;;;;;4188738;28;20614;-79
2022/07/02 04:16:27;;;;;;;10.87;7.17;;;13.60;99.90;;;;;;4191547;28;20636;-81
2022/07/02 04:18:29;;;;;;;10.90;7.27;;;13.80;99.90;;;;;;4173163;28;20210;-79
2022/07/02 04:20:33;;;;;;;9.33;6.87;;;13.50;99.90;;;;;;4170943;28;20211;-80
2022/07/02 04:22:35;;;;;;;9.77;7.07;;;13.60;99.90;;;;;;4178009;28;20213;-80
2022/07/02 04:24:36;;;;;;;11.60;7.70;;;13.60;99.90;;;;;;4170463;28;20234;-81
2022/07/02 04:26:38;;;;;;;9.77;7.03;;;13.60;99.90;;;;;;4187650;28;20332;-80
2022/07/02 04:28:40;;;;;;;12.43;8.00;;;13.50;99.90;;;;;;4190274;28;20706;-80
2022/07/02 04:30:42;;;;;;;10.60;7.37;;;13.60;99.90;;;;;;4177696;28;20234;-80
2022/07/02 04:32:44;;;;;;;10.67;7.30;;;13.60;99.90;;;;;;4188801;28;20216;-80
2022/07/02 04:34:46;;;;;;;10.53;7.40;;;13.60;99.90;;;;;;4185427;28;20597;-79
2022/07/02 04:36:50;;;;;;;11.57;6.93;;;13.60;99.90;;;;;;4193901;28;20280;-79
2022/07/02 04:38:51;;;;;;;11.73;7.13;;;13.60;99.90;;;;;;4191676;28;20214;-79
2022/07/02 04:40:53;;;;;;;11.13;7.27;;;13.60;99.90;;;;;;4185079;28;20233;-79
2022/07/02 04:42:55;;;;;;;13.77;7.93;;;13.60;99.90;;;;;;4189976;28;20216;-80
2022/07/02 04:44:57;;;;;;;9.30;6.83;;;13.60;99.90;;;;;;4199168;28;20602;-80
2022/07/02 04:46:59;;;;;;;14.43;8.70;;;13.60;99.90;;;;;;4206985;28;20248;-79
2022/07/02 04:49:01;;;;;;;10.93;8.33;;;13.60;99.90;;;;;;4178317;28;20261;-81
2022/07/02 04:51:03;;;;;;;12.60;8.70;;;13.70;99.90;;;;;;4189381;28;20210;-80
2022/07/02 04:53:07;;;;;;;13.90;8.17;;;13.70;99.90;;;;;;4192713;28;20297;-80
2022/07/02 04:55:09;;;;;;;9.30;6.83;;;13.70;99.90;;;;;;4174264;28;20697;-79
2022/07/02 04:57:11;;;;;;;12.93;7.77;;;13.70;99.90;;;;;;4189113;28;20225;-79
2022/07/02 04:59:13;;;;;;;12.13;7.50;;;13.70;99.90;;;;;;4190423;28;20211;-79
2022/07/02 05:01:16;;;;;;;13.10;7.80;;;13.70;99.90;;;;;;4190402;28;20670;-80
2022/07/02 05:03:18;;;;;;;10.97;7.17;;;13.80;99.90;;;;;;4177752;28;20211;-80
2022/07/02 05:05:20;;;;;;;16.70;7.83;;;13.80;99.90;;;;;;4186892;28;20210;-80
2022/07/02 05:07:22;;;;;;;10.50;7.13;;;13.80;99.90;;;;;;4216140;22;20308;-84
2022/07/02 05:09:25;;;;;;;8.60;6.40;;;13.80;99.90;;;;;;4184795;28;20233;-85
2022/07/02 05:11:27;;;;;;;7.73;6.13;;;13.90;99.90;;;;;;4170399;28;20234;-85
2022/07/02 05:13:29;;;;;;;8.93;6.50;;;13.90;99.90;;;;;;4190707;28;20263;-84
2022/07/02 05:15:31;;;;;;;12.37;6.50;;;13.90;99.90;;;;;;4175234;28;20206;-84
2022/07/02 05:17:33;;;;;;;7.37;5.83;;;14.00;99.90;;;;;;4187549;28;20264;-84
2022/07/02 05:19:35;;;;;;;8.00;6.27;;;14.00;99.90;;;;;;4186649;28;20653;-84
2022/07/02 05:21:37;;;;;;;10.10;6.37;;;14.00;99.90;;;;;;4208873;28;20205;-85
2022/07/02 05:23:40;;;;;;;7.40;5.80;;;14.00;99.90;;;;;;4208553;28;20199;-84
2022/07/02 05:25:46;;;;;;;9.00;5.77;;;14.10;99.90;;;;;;4182646;28;20221;-84
2022/07/02 05:27:48;;;;;;;8.77;6.20;;;14.10;99.90;;;;;;4200648;28;20205;-86
2022/07/02 05:29:50;;;;;;;8.63;6.00;;;14.20;99.90;;;;;;4182866;28;20206;-84
2022/07/02 05:31:52;;;;;;;8.83;6.20;;;14.20;99.90;;;;;;4203732;28;20581;-85
2022/07/02 05:33:54;;;;;;;9.87;6.07;;;14.20;99.90;;;;;;4206925;28;20517;-85
2022/07/02 05:35:56;;;;;;;6.27;5.50;;;14.20;99.90;;;;;;4200840;28;20205;-84
2022/07/02 05:37:58;;;;;;;9.30;6.00;;;14.30;99.90;;;;;;4182617;28;20294;-84
2022/07/02 05:40:00;;;;;;;8.37;5.70;;;14.20;99.90;;;;;;4188753;28;20213;-83
2022/07/02 05:42:03;;;;;;;8.10;5.73;;;14.30;99.90;;;;;;4187667;28;20210;-84
2022/07/02 05:44:05;;;;;;;10.03;5.50;;;14.30;99.90;;;;;;4190491;28;20264;-84
2022/07/02 05:46:08;;;;;;;12.80;6.00;;;14.40;99.90;;;;;;4192123;28;20230;-85
2022/07/02 05:48:10;;;;;;;9.13;5.77;;;14.40;99.90;;;;;;4187737;28;20207;-84
2022/07/02 05:50:12;;;;;;;7.47;5.17;;;14.40;99.90;;;;;;4195361;28;20309;-84
2022/07/02 05:52:17;;;;;;;10.03;5.03;;;14.50;99.90;;;;;;4192680;28;20203;-84
2022/07/02 05:54:19;;;;;;;9.03;5.50;;;14.50;99.90;;;;;;4199517;28;20276;-85
2022/07/02 05:56:21;;;;;;;7.27;5.00;;;14.60;99.90;;;;;;4207018;28;20224;-86
2022/07/02 05:58:24;;;;;;;6.93;4.87;;;14.60;99.90;;;;;;4195983;28;20220;-84
2022/07/02 06:00:26;;;;;;;6.23;4.67;;;14.70;99.90;;;;;;4192333;28;20229;-84
2022/07/02 06:02:28;;;;;;;5.90;4.63;;;14.70;99.90;;;;;;4209884;28;20229;-85
2022/07/02 06:04:31;;;;;;;6.57;4.90;;;14.70;99.90;;;;;;4205630;28;20255;-84
2022/07/02 06:08:53;;;;;;;5.60;4.80;;;14.80;99.90;;;;;;4184336;28;20237;-84
2022/07/02 06:10:55;;;;;;;8.77;5.17;;;14.80;99.90;;;;;;4192114;28;20237;-84
2022/07/02 06:12:57;;;;;;;6.90;5.13;;;14.80;99.90;;;;;;4196960;28;20212;-83
2022/07/02 06:15:00;;;;;;;5.07;4.57;;;14.80;99.90;;;;;;4209737;28;20227;-83
2022/07/02 06:17:02;;;;;;;6.27;4.73;;;14.80;99.90;;;;;;4217906;28;20229;-84
2022/07/02 06:19:06;;;;;;;5.70;4.67;;;14.90;99.90;;;;;;4191071;28;20206;-83
2022/07/02 06:21:09;;;;;;;6.40;4.80;;;14.90;99.90;;;;;;4201557;28;20206;-84
2022/07/02 06:23:11;;;;;;;5.60;4.33;;;15.00;99.90;;;;;;4192397;28;20624;-84
2022/07/02 06:25:13;;;;;;;8.37;4.80;;;15.00;99.90;;;;;;4211163;28;20201;-85
2022/07/02 06:27:15;;;;;;;6.10;4.87;;;15.10;99.90;;;;;;4201236;28;20313;-84
2022/07/02 06:29:17;;;;;;;8.23;5.70;;;15.10;99.90;;;;;;4200119;28;20205;-83
2022/07/02 06:31:20;;;;;;;9.93;6.53;;;15.10;99.90;;;;;;4220831;28;20225;-83
2022/07/02 06:33:23;;;;;;;8.47;6.20;;;15.20;99.90;;;;;;4201346;28;20387;-86
2022/07/02 06:35:25;;;;;;;9.10;5.73;;;15.30;99.90;;;;;;4208488;28;20251;-84
2022/07/02 06:37:27;;;;;;;7.97;5.30;;;15.30;99.90;;;;;;4196433;28;20254;-87
2022/07/02 06:39:29;;;;;;;5.67;5.07;;;15.40;99.90;;;;;;4203435;28;20210;-83
2022/07/02 06:43:50;;;;;;;5.33;4.37;;;15.50;99.90;;;;;;4179031;28;20760;-84
2022/07/02 06:45:52;;;;;;;7.23;5.03;;;15.50;99.90;;;;;;4179695;28;20545;-84
2022/07/02 06:47:56;;;;;;;8.07;4.13;;;15.50;99.90;;;;;;4191045;28;20602;-85
2022/07/02 06:50:00;;;;;;;6.97;4.33;;;15.60;99.90;;;;;;4201063;28;20206;-83
2022/07/02 06:52:02;;;;;;;8.50;4.40;;;15.60;99.90;;;;;;4194997;28;20207;-83
2022/07/02 06:54:04;;;;;;;5.67;4.17;;;15.70;99.90;;;;;;4189840;28;20619;-84
2022/07/02 06:56:06;;;;;;;5.80;4.00;;;15.80;99.90;;;;;;4203957;28;20599;-84
2022/07/02 06:58:09;;;;;;;6.20;4.40;;;15.80;99.90;;;;;;4210953;28;20684;-82
2022/07/02 07:00:12;;;;;;;5.10;3.87;;;15.90;99.90;;;;;;4203265;28;20207;-83
2022/07/02 07:02:14;;;;;;;5.67;4.57;;;15.90;99.90;;;;;;4186766;28;20257;-84
2022/07/02 07:04:17;;;;;;;5.30;4.03;;;15.90;99.90;;;;;;4196267;28;20199;-84
2022/07/02 07:06:20;;;;;;;6.10;3.93;;;15.90;99.90;;;;;;4187400;28;20232;-85
2022/07/02 07:08:22;;;;;;;4.27;3.80;;;16.00;99.90;;;;;;4193159;28;20216;-83
2022/07/02 07:10:24;;;;;;;5.87;4.30;;;16.00;99.90;;;;;;4184806;28;20595;-83
2022/07/02 07:12:27;;;;;;;7.07;4.10;;;16.00;99.90;;;;;;4177949;28;20213;-82
2022/07/02 07:14:30;;;;;;;5.87;4.10;;;16.00;99.90;;;;;;4206720;28;20220;-83
2022/07/02 07:16:32;;;;;;;6.67;4.10;;;16.10;99.90;;;;;;4216843;28;20228;-84
2022/07/02 07:18:34;;;;;;;4.90;3.67;;;16.10;99.90;;;;;;4196478;28;20209;-86
2022/07/02 07:20:37;;;;;;;5.83;3.97;;;16.20;99.90;;;;;;4192557;28;20242;-85
2022/07/02 07:22:39;;;;;;;7.27;4.10;;;16.20;99.90;;;;;;4195192;28;20224;-83
2022/07/02 07:24:42;;;;;;;5.67;3.90;;;16.30;99.90;;;;;;4207697;28;20216;-85
2022/07/02 07:26:44;;;;;;;7.33;4.13;;;16.30;99.90;;;;;;4209409;28;20304;-83
2022/07/02 07:28:46;;;;;;;5.27;4.00;;;16.40;99.90;;;;;;4195146;28;20240;-85
2022/07/02 07:30:48;;;;;;;7.13;3.60;;;16.40;99.90;;;;;;4195156;28;20717;-84
2022/07/02 07:32:50;;;;;;;6.87;3.27;;;16.50;99.90;;;;;;4213345;28;20228;-85
2022/07/02 07:34:52;;;;;;;4.87;3.67;;;16.50;99.90;;;;;;4190165;28;20270;-85
2022/07/02 07:36:56;;;;;;;5.50;3.60;;;16.60;99.90;;;;;;4190805;28;20222;-87
2022/07/02 07:38:59;;;;;;;4.43;3.27;;;16.60;99.90;;;;;;4191702;28;20217;-83
2022/07/02 07:41:01;;;;;;;4.00;3.37;;;16.70;99.90;;;;;;4194464;28;20206;-84
2022/07/02 07:43:04;;;;;;;4.20;3.17;;;16.70;99.90;;;;;;4194206;28;20280;-84
2022/07/02 07:45:07;;;;;;;3.50;3.07;;;16.80;99.90;;;;;;4189720;28;20744;-82
2022/07/02 07:47:09;;;;;;;4.03;3.37;;;16.80;99.90;;;;;;4212854;28;20622;-84
2022/07/02 07:49:11;;;;;;;4.20;3.20;;;16.70;99.90;;;;;;4201517;28;20912;-86
2022/07/02 07:51:13;;;;;;;5.07;3.10;;;16.90;99.90;;;;;;4195273;28;20291;-83
2022/07/02 07:53:20;;;;;;;4.00;3.53;;;16.90;99.90;;;;;;4223663;28;20221;-83
2022/07/02 07:55:22;;;;;;;8.20;3.30;;;17.00;99.90;;;;;;4194208;28;20313;-83
2022/07/02 07:57:25;;;;;;;3.30;3.00;;;17.00;99.90;;;;;;4197615;28;20233;-84
2022/07/02 07:59:27;;;;;;;5.23;3.23;;;17.00;99.90;;;;;;4197713;28;20203;-84
2022/07/02 08:01:29;;;;;;;3.63;2.80;;;17.10;99.90;;;;;;4216928;28;20209;-84
2022/07/02 08:03:31;;;;;;;4.47;2.77;;;17.10;99.90;;;;;;4196514;28;20199;-84
2022/07/02 08:05:33;;;;;;;5.30;2.77;;;17.20;99.90;;;;;;4193608;28;20808;-84
2022/07/02 08:07:37;;;;;;;4.53;3.00;;;17.30;99.90;;;;;;4190311;28;20950;-84
2022/07/02 08:09:41;;;;;;;4.90;2.50;;;17.40;99.90;;;;;;4192915;28;20230;-84
2022/07/02 08:11:43;;;;;;;3.40;2.83;;;17.50;99.90;;;;;;4187558;28;20206;-84
2022/07/02 08:13:45;;;;;;;3.60;2.83;;;17.50;99.90;;;;;;4192387;28;20241;-85
2022/07/02 08:15:47;;;;;;;4.83;2.50;;;17.50;99.90;;;;;;4193811;28;20218;-85
2022/07/02 08:17:49;;;;;;;4.97;2.37;;;17.60;99.90;;;;;;4213725;28;20202;-85
2022/07/02 08:19:51;;;;;;;3.73;2.30;;;17.60;99.90;;;;;;4202692;28;20915;-85
2022/07/02 08:21:54;;;;;;;2.30;2.10;;;17.70;99.90;;;;;;4200066;28;20211;-85
2022/07/02 08:23:56;;;;;;;3.63;2.50;;;17.80;99.90;;;;;;4220819;28;20211;-85
2022/07/02 08:26:00;;;;;;;3.80;2.43;;;17.80;99.90;;;;;;4215899;28;20206;-85
2022/07/02 08:28:03;;;;;;;2.70;2.40;;;17.90;99.90;;;;;;4203410;28;20211;-85
2022/07/02 08:30:06;;;;;;;4.10;2.30;;;17.90;99.90;;;;;;4219407;28;20205;-85
2022/07/02 08:32:08;;;;;;;3.27;2.30;;;17.90;99.90;;;;;;4208688;28;20258;-85
2022/07/02 08:34:11;;;;;;;3.97;2.37;;;17.90;99.90;;;;;;4203119;28;20707;-86
2022/07/02 08:36:13;;;;;;;3.37;2.53;;;18.00;99.90;;;;;;4190966;28;20419;-85
2022/07/02 08:38:18;;;;;;;3.73;2.50;;;18.00;99.90;;;;;;4190227;28;20213;-84
2022/07/02 08:40:24;;;;;;;3.03;2.10;;;18.00;99.90;;;;;;4199727;28;20236;-85
2022/07/02 08:42:29;;;;;;;3.50;2.30;;;18.10;99.90;;;;;;4193467;28;20214;-84
2022/07/02 08:44:33;;;;;;;3.10;1.80;;;18.10;99.90;;;;;;4189903;28;20202;-85
2022/07/02 08:46:39;;;;;;;2.53;1.70;;;18.20;99.90;;;;;;4214859;28;20236;-85
2022/07/02 08:48:42;;;;;;;2.83;1.43;;;18.20;99.90;;;;;;4194649;28;20656;-86
2022/07/02 08:50:46;;;;;;;2.83;1.60;;;18.30;99.90;;;;;;4206047;28;20215;-85
2022/07/02 08:52:51;;;;;;;2.10;1.67;;;18.40;99.90;;;;;;4192103;28;20317;-86
2022/07/02 08:54:54;;;;;;;3.73;1.80;;;18.50;99.90;;;;;;4191015;28;20222;-86
2022/07/02 08:56:57;;;;;;;1.80;1.60;;;18.50;99.90;;;;;;4190735;28;20606;-85
2022/07/02 08:59:02;;;;;;;3.67;1.50;;;18.60;99.90;;;;;;4194296;28;20665;-85
2022/07/02 09:01:05;;;;;;;2.43;1.73;;;18.60;99.90;;;;;;4192040;28;20219;-85
2022/07/02 09:03:09;;;;;;;4.40;1.60;;;18.70;99.90;;;;;;4190277;28;20261;-85
2022/07/02 09:05:12;;;;;;;2.77;1.60;;;18.70;99.90;;;;;;4185506;28;20250;-85
2022/07/02 09:07:16;;;;;;;2.57;1.73;;;18.80;99.90;;;;;;4184035;28;20605;-85
2022/07/02 09:09:18;;;;;;;1.80;1.60;;;18.80;99.90;;;;;;4192261;28;20225;-85
2022/07/02 09:11:20;;;;;;;2.13;1.70;;;18.90;99.90;;;;;;4188316;28;20568;-86
2022/07/02 09:13:23;;;;;;;2.33;1.90;;;18.90;99.90;;;;;;4206631;28;20214;-85
2022/07/02 09:15:27;;;;;;;2.00;1.67;;;18.90;99.90;;;;;;4192236;28;20226;-85
2022/07/02 09:17:29;;;;;;;2.40;1.60;;;19.00;99.90;;;;;;4202492;28;20228;-85
2022/07/02 09:19:31;;;;;;;1.70;1.50;;;19.00;99.90;;;;;;4197821;28;20766;-85
2022/07/02 09:21:41;;;;;;;2.03;1.83;;;19.10;99.90;;;;;;4209782;28;20198;-85
2022/07/02 09:23:47;;;;;;;1.70;1.50;;;19.20;99.90;;;;;;4212893;28;20207;-85
2022/07/02 09:25:51;;;;;;;1.73;1.63;;;19.20;99.90;;;;;;4189885;28;20193;-86
2022/07/02 09:27:59;;;;;;;3.10;1.53;;;19.30;99.90;;;;;;4205252;28;20204;-85
2022/07/02 09:30:01;;;;;;;2.97;2.00;;;19.40;99.90;;;;;;4222110;28;20207;-85
2022/07/02 09:32:05;;;;;;;3.23;1.70;;;19.40;99.90;;;;;;4216196;28;20286;-86
2022/07/02 09:34:07;;;;;;;1.53;1.40;;;19.60;99.90;;;;;;4203376;28;20246;-85
2022/07/02 09:36:11;;;;;;;1.73;1.57;;;19.60;99.90;;;;;;4203512;28;20237;-85
2022/07/02 09:38:13;;;;;;;1.97;1.50;;;19.80;99.90;;;;;;4207515;28;20205;-85
2022/07/02 09:40:15;;;;;;;3.30;1.70;;;19.90;99.90;;;;;;4189132;28;20209;-85
2022/07/02 09:42:25;;;;;;;3.13;1.47;;;20.00;99.90;;;;;;4189952;28;20279;-86
2022/07/02 09:44:27;;;;;;;1.90;1.70;;;20.10;99.90;;;;;;4206231;28;20239;-85
2022/07/02 09:46:30;;;;;;;1.37;1.27;;;20.20;99.90;;;;;;4192490;28;20213;-85
2022/07/02 09:48:34;;;;;;;2.00;1.37;;;20.20;99.90;;;;;;4186281;28;20240;-85
2022/07/02 09:50:39;;;;;;;1.93;1.40;;;20.30;99.90;;;;;;4189376;28;20218;-85
2022/07/02 09:52:49;;;;;;;1.63;1.53;;;20.40;99.90;;;;;;4201765;28;20211;-84
2022/07/02 09:54:51;;;;;;;3.33;1.57;;;20.40;99.90;;;;;;4186713;28;20213;-85
2022/07/02 09:56:54;;;;;;;1.33;1.23;;;20.50;99.90;;;;;;4188981;28;20288;-85
2022/07/02 09:58:56;;;;;;;1.60;1.50;;;20.50;99.90;;;;;;4185962;28;20296;-85
2022/07/02 10:01:03;;;;;;;1.63;1.53;;;20.60;99.90;;;;;;4187126;28;20291;-84
2022/07/02 10:03:05;;;;;;;1.60;1.33;;;20.70;99.90;;;;;;4203392;28;20255;-84
2022/07/02 10:05:09;;;;;;;1.87;1.43;;;20.70;99.90;;;;;;4193197;28;20218;-85
2022/07/02 10:07:11;;;;;;;1.40;1.30;;;20.80;99.90;;;;;;4189680;28;20267;-85
2022/07/02 10:09:15;;;;;;;1.73;1.37;;;20.90;99.90;;;;;;4187018;28;20233;-85
2022/07/02 10:11:17;;;;;;;1.43;1.20;;;21.10;99.90;;;;;;4192216;28;20205;-84
2022/07/02 10:13:20;;;;;;;3.73;1.40;;;21.10;99.90;;;;;;4188194;28;20260;-84
2022/07/02 10:15:39;;;;;;;3.40;1.23;;;21.20;99.90;;;;;;4190198;28;20725;-85
2022/07/02 10:17:42;;;;;;;1.37;1.07;;;21.30;99.90;;;;;;4184244;28;20796;-84
2022/07/02 10:19:44;;;;;;;3.80;1.30;;;21.40;99.90;;;;;;4201910;28;20201;-86
2022/07/02 10:21:49;;;;;;;1.20;1.10;;;21.50;99.90;;;;;;4193046;28;20205;-86
2022/07/02 10:23:53;;;;;;;1.80;1.30;;;21.50;99.90;;;;;;4198889;28;20344;-87
2022/07/02 10:25:59;;;;;;;1.50;1.20;;;21.60;99.90;;;;;;4190370;28;20226;-87
2022/07/02 10:28:01;;;;;;;1.67;1.20;;;21.70;99.90;;;;;;4217770;28;20779;-84
2022/07/02 10:30:04;;;;;;;1.53;1.40;;;21.80;99.90;;;;;;4217628;28;20234;-83
2022/07/02 10:32:17;;;;;;;2.10;1.40;;;21.80;99.90;;;;;;4202519;28;20220;-85
2022/07/02 10:34:32;;;;;;;2.93;1.23;;;21.90;99.90;;;;;;4203795;28;20237;-83
2022/07/02 10:36:35;;;;;;;2.33;1.57;;;21.90;99.90;;;;;;4205382;28;20305;-84
2022/07/02 10:38:41;;;;;;;1.63;1.30;;;22.00;99.90;;;;;;4193287;28;20199;-84
2022/07/02 10:40:48;;;;;;;1.60;1.23;;;22.10;99.90;;;;;;4196306;28;20210;-83
2022/07/02 10:42:51;;;;;;;1.23;1.13;;;22.10;99.90;;;;;;4214174;28;20198;-86
2022/07/02 10:44:53;;;;;;;1.33;1.23;;;22.10;99.90;;;;;;4203567;28;20298;-82
2022/07/02 10:46:59;;;;;;;1.27;1.17;;;22.20;99.90;;;;;;4198903;28;20287;-82
2022/07/02 10:49:05;;;;;;;1.20;1.10;;;22.30;99.90;;;;;;4195586;28;20206;-81
2022/07/02 10:51:18;;;;;;;1.80;1.50;;;22.30;99.90;;;;;;4194992;28;20240;-82
2022/07/02 10:53:22;;;;;;;1.60;1.30;;;22.40;99.90;;;;;;4215204;28;20207;-81
2022/07/02 10:55:30;;;;;;;3.00;1.50;;;22.40;99.90;;;;;;4208976;28;20216;-81
2022/07/02 10:57:32;;;;;;;1.47;1.20;;;22.50;99.90;;;;;;4211719;28;20276;-81
2022/07/02 10:59:36;;;;;;;2.77;1.30;;;22.60;99.90;;;;;;4197745;28;20765;-81
2022/07/02 11:01:38;;;;;;;1.23;1.13;;;22.60;99.90;;;;;;4211870;28;20226;-82
2022/07/02 11:03:52;;;;;;;1.73;1.23;;;22.70;99.90;;;;;;4200863;28;20212;-80
2022/07/02 11:05:56;;;;;;;1.53;1.27;;;22.70;99.90;;;;;;4213617;28;20236;-80
2022/07/02 11:07:59;;;;;;;2.10;1.03;;;22.70;99.90;;;;;;4204285;22;20230;-82
2022/07/02 11:10:07;;;;;;;1.10;1.00;;;22.80;99.90;;;;;;4187547;28;20233;-82
2022/07/02 11:12:10;;;;;;;2.70;1.10;;;22.80;99.90;;;;;;4184110;28;20655;-82
2022/07/02 11:14:13;;;;;;;1.53;1.10;;;22.90;99.90;;;;;;4184356;28;20210;-81
2022/07/02 11:16:20;;;;;;;2.47;1.17;;;22.90;99.90;;;;;;4183329;28;20229;-82
2022/07/02 11:18:22;;;;;;;2.53;1.33;;;23.00;99.90;;;;;;4167821;28;20211;-82
2022/07/02 11:20:26;;;;;;;1.27;0.90;;;23.00;92.70;;;;;;4171152;28;20706;-82
2022/07/02 11:22:32;;;;;;;1.87;0.83;;;23.10;79.60;;;;;;4167751;28;20221;-81
2022/07/02 11:24:34;;;;;;;1.77;0.80;;;23.10;80.60;;;;;;4175314;28;20218;-82
2022/07/02 11:26:36;;;;;;;1.30;0.97;;;23.20;66.10;;;;;;4164442;28;20526;-82
2022/07/02 11:28:39;;;;;;;0.90;0.90;;;23.30;81.90;;;;;;4169581;28;20234;-82
2022/07/02 11:30:41;;;;;;;1.33;1.00;;;23.40;87.60;;;;;;4162438;28;20692;-82
2022/07/02 11:32:43;;;;;;;1.50;0.90;;;23.50;90.60;;;;;;4167537;28;20203;-82
2022/07/02 11:34:57;;;;;;;2.83;1.43;;;23.70;90.90;;;;;;4179694;28;20643;-80
2022/07/02 11:37:01;;;;;;;1.10;0.90;;;23.80;75.60;;;;;;4161174;28;20269;-80
2022/07/02 11:39:09;;;;;;;1.10;0.80;;;24.10;80.40;;;;;;4161590;28;20570;-77
2022/07/02 11:41:18;;;;;;;2.00;1.10;;;24.30;73.20;;;;;;4159149;28;20202;-77
2022/07/02 11:43:21;;;;;;;2.00;0.90;;;24.50;75.10;;;;;;4160642;28;20207;-76
2022/07/02 11:45:24;;;;;;;1.27;0.90;;;24.70;67.80;;;;;;4153938;28;20230;-78
2022/07/02 11:47:26;;;;;;;1.33;1.10;;;25.00;62.50;;;;;;4156442;28;20637;-78
2022/07/02 11:49:33;;;;;;;0.90;0.90;;;25.20;61.10;;;;;;4158685;28;20215;-78
2022/07/02 11:51:35;;;;;;;1.70;1.00;;;25.30;56.20;;;;;;4156805;28;20526;-80
2022/07/02 11:53:37;;;;;;;2.57;0.90;;;25.40;54.90;;;;;;4174505;28;20199;-81
2022/07/02 11:55:39;;;;;;;0.80;0.70;;;25.50;60.50;;;;;;4156556;28;20295;-80
2022/07/02 11:57:41;;;;;;;1.50;0.80;;;25.60;54.00;;;;;;4164392;28;20230;-82
2022/07/02 11:59:51;;;;;;;1.47;1.00;;;25.60;50.10;;;;;;4159519;28;20294;-79
2022/07/02 12:01:55;;;;;;;0.80;0.80;;;25.80;52.40;;;;;;4162891;28;20203;-78
2022/07/02 12:03:58;;;;;;;2.30;0.93;;;26.00;48.00;;;;;;4159616;28;20203;-83
2022/07/02 12:06:00;;;;;;;1.50;0.90;;;26.20;46.40;;;;;;4154928;28;20200;-84
2022/07/02 12:08:03;;;;;;;1.17;0.90;;;26.40;45.30;;;;;;4153014;28;20677;-82
2022/07/02 12:10:06;;;;;;;2.53;1.00;;;26.70;43.60;;;;;;4151788;28;20219;-82
2022/07/02 12:12:09;;;;;;;1.30;1.00;;;26.90;48.40;;;;;;4169646;28;20304;-82
2022/07/02 12:14:12;;;;;;;1.25;0.80;;;27.00;45.00;;;;;;4155659;28;20204;-86
2022/07/02 12:16:16;;;;;;;1.20;0.80;;;27.00;45.00;;;;;;4165219;28;20222;-79
2022/07/02 12:18:22;;;;;;;1.83;0.90;;;27.00;43.90;;;;;;4157846;28;20211;-81
2022/07/02 12:20:24;;;;;;;1.73;0.70;;;27.00;45.00;;;;;;4162079;28;20203;-81
2022/07/02 12:22:28;;;;;;;1.33;0.80;;;27.10;48.90;;;;;;4159521;28;20196;-79
2022/07/02 12:24:32;;;;;;;0.83;0.77;;;27.20;44.10;;;;;;4165395;28;20269;-80
2022/07/02 12:26:34;;;;;;;1.20;0.80;;;27.40;44.80;;;;;;4159968;28;20269;-80
2022/07/02 12:30:56;;;;;;;1.08;0.77;;;27.80;42.90;;;;;;4154260;28;20277;-80
2022/07/02 12:32:58;;;;;;;1.40;0.80;;;28.10;41.20;;;;;;4160637;28;20222;-80
2022/07/02 12:35:03;;;;;;;0.95;0.73;;;28.40;43.30;;;;;;4162996;28;20203;-79
2022/07/02 12:37:05;;;;;;;1.42;0.90;;;28.60;41.00;;;;;;4152143;28;20747;-78
2022/07/02 12:39:07;;;;;;;1.58;0.90;;;28.80;39.50;;;;;;4155387;28;20208;-77
2022/07/02 12:41:09;;;;;;;2.05;0.90;;;28.90;38.30;;;;;;4154631;28;20234;-77